Chaleur - Miscou: Past 24 Hour Conditions

 

Mary's Harbour

08:30 AM NST 25 January 2015
Disclaimer

This table is a summary of hourly weather conditions for the past 24 hours.
Please note that these observations might not always be representative of weather conditions over their associated marine area.

Date / Time
(NST)
Wind(knots) Conditions Visibility(km) Pressure(kPa) Air tempC) Relative humidity(%) Dew pointC) Wind Chill
25 January 2015
8:30 E 22 gust 31 Heavy Snow 0.2 N/A -2 96 -3 -10
7:30 E 18 gust 25 Snow 0.8 N/A -3 95 -4 -11
6:30 E 12 gust 19 Light Snow 1 99.0 -3 95 -4 -10
5:30 E 11 gust 19 Light Snow 2 99.4 -4 94 -5 -11
4:30 E 10 gust 16 Light Snow 6 99.8 -5 94 -6 -11
3:30 ESE 11 gust 16 Light Snow 16 100.0 -6 92 -7 -13
2:30 E 4 Light Snow 15 100.3 -8 89 -9 -12
1:30 E 3 Haze 6 100.4 -12 77 -15 -15
0:30 NE 2 Light Snow 10 100.5 -13 76 -16 -16
24 January 2015
23:30 calm Cloudy 16 100.6 -13 71 -17 *
22:30 calm Cloudy 16 100.7 -14 69 -18 *
21:30 SSW 3 Cloudy 16 100.8 -14 67 -19 -17
20:30 S 5 Partly Cloudy 16 100.8 -14 66 -19 -19
19:30 SSW 5 Cloudy 16 100.8 -13 65 -18 -18
18:30 S 5 Cloudy 16 100.8 -13 70 -17 -18
17:30 S 2 Cloudy 16 100.8 -13 64 -18 -15
16:30 SW 3 Cloudy 16 100.7 -13 59 -19 -16
15:30 W 4 Cloudy 16 100.7 -12 55 -20 -17
14:30 WSW 7 Mainly Sunny 16 100.7 -13 53 -20 -19
13:30 W 9 gust 15 Sunny 16 100.6 -13 55 -21 -21
12:30 SW 8 Sunny 16 100.6 -15 55 -22 -23
11:30 SW 7 Sunny 16 100.6 -17 56 -24 -25
10:30 WSW 8 Sunny 16 100.7 -19 57 -26 -28
9:30 WSW 8 Sunny 16 100.6 -22 63 -27 -31
8:30 WSW 4 Sunny 16 100.6 -24 69 -28 -31
Map of Atlantic - Newfoundland marine weather areas Southwestern Grand Banks - 44138 Banquereau - 44139 Tail of the Bank - 44140 Nickerson Bank - 44251 Northeast Burgeo Bank - 44255 Blanc-Sablon Airport Cap Whittle Chevery Natashquan Airport Heath Point Miscou Island Grand Étang Ingonish Beach North Mountain St.Paul Island J.A. Douglas McCurdy Sydney Airport Charlottetown Airport East Point North Cape Argentia Bonavista Burgeo Cape Race Corner Brook Daniel's Harbour Englee Ferolle Point La Scie Port aux Basques Rocky Harbour Sagona Island St. Anthony Airport St. John's Int'l Airport St. Lawrence Stephenville Airport Twillingate Winterland Wreckhouse Cartwright Airport Mary's Harbour Grates Cove Pool's Island Marticot Island Long Pond Îles de la Madeleine Airport
Legend:
buoy Buoy
land station Land Station

Atlantic - Newfoundland Area

Another Region

What we are doing

Date modified: